Time;durP1;ratioP1;P1;durP2;ratioP2;P2;SDS_P1;SDS_P2;PMS_P1;PMS_P2;Temp;Humidity;BMP_temperature;BMP_pressure;BME280_temperature;BME280_humidity;BME280_pressure;Samples;Min_cycle;Max_cycle;Signal;HPM_P1;HPM_P2
2021/08/18 00:00:16;;;;;;;4.53;1.08;;;;;;;;;;1081930;54;20405;-84
2021/08/18 00:01:17;;;;;;;6.15;1.50;;;;;;;;;;1081984;47;20964;-84
2021/08/18 00:02:20;;;;;;;3.60;0.82;;;;;;;;;;1081630;54;20933;-84
2021/08/18 00:03:21;;;;;;;2.70;0.75;;;;;;;;;;1082278;54;20377;-83
2021/08/18 00:04:23;;;;;;;2.50;0.60;;;;;;;;;;1082235;47;20376;-83
2021/08/18 00:05:25;;;;;;;6.68;0.82;;;;;;;;;;1082250;54;20365;-83
2021/08/18 00:06:26;;;;;;;3.33;0.60;;;;;;;;;;1082051;47;20369;-83
2021/08/18 00:07:29;;;;;;;2.13;0.57;;;;;;;;;;1081288;54;20381;-84
2021/08/18 00:08:31;;;;;;;1.70;0.85;;;;;;;;;;1081935;47;20385;-84
2021/08/18 00:09:33;;;;;;;3.97;1.55;;;;;;;;;;1081938;54;20376;-84
2021/08/18 00:10:36;;;;;;;3.10;0.65;;;;;;;;;;1081006;47;20374;-83
2021/08/18 00:11:37;;;;;;;4.15;0.75;;;;;;;;;;1080360;39;20739;-83
2021/08/18 00:12:39;;;;;;;4.55;1.13;;;;;;;;;;1081644;54;20411;-83
2021/08/18 00:13:41;;;;;;;3.97;1.10;;;;;;;;;;1082727;54;20480;-82
2021/08/18 00:14:44;;;;;;;4.35;0.80;;;;;;;;;;1085122;54;20385;-82
2021/08/18 00:15:46;;;;;;;4.32;0.93;;;;;;;;;;1086526;54;20357;-82
2021/08/18 00:16:47;;;;;;;4.80;0.77;;;;;;;;;;1085975;54;20384;-82
2021/08/18 00:17:50;;;;;;;5.38;0.82;;;;;;;;;;1084414;47;20457;-83
2021/08/18 00:18:53;;;;;;;4.28;1.00;;;;;;;;;;1086671;47;20381;-82
2021/08/18 00:19:56;;;;;;;3.80;0.70;;;;;;;;;;1087175;47;20498;-82
2021/08/18 00:20:57;;;;;;;3.72;0.70;;;;;;;;;;1087125;47;20454;-83
2021/08/18 00:21:59;;;;;;;3.13;0.98;;;;;;;;;;1085492;47;20419;-82
2021/08/18 00:23:01;;;;;;;4.68;0.60;;;;;;;;;;1085598;54;20404;-82
2021/08/18 00:24:03;;;;;;;3.80;0.80;;;;;;;;;;1085037;39;21060;-85
2021/08/18 00:25:07;;;;;;;5.68;1.15;;;;;;;;;;1084574;54;20369;-83
2021/08/18 00:26:08;;;;;;;2.63;0.60;;;;;;;;;;1085315;47;20399;-84
2021/08/18 00:27:10;;;;;;;2.20;0.60;;;;;;;;;;1085150;47;20408;-83
2021/08/18 00:28:13;;;;;;;6.20;0.82;;;;;;;;;;1084537;54;20393;-82
2021/08/18 00:29:15;;;;;;;5.30;0.70;;;;;;;;;;1082879;47;20520;-83
2021/08/18 00:30:16;;;;;;;3.40;0.55;;;;;;;;;;1082841;47;20405;-82
2021/08/18 00:31:18;;;;;;;2.13;0.57;;;;;;;;;;1083204;54;20417;-83
2021/08/18 00:32:20;;;;;;;3.83;1.08;;;;;;;;;;1082111;54;20913;-83
2021/08/18 00:33:21;;;;;;;2.85;0.90;;;;;;;;;;1082216;47;20373;-83
2021/08/18 00:34:23;;;;;;;3.70;0.50;;;;;;;;;;1082215;54;20383;-83
2021/08/18 00:35:25;;;;;;;4.15;0.80;;;;;;;;;;1082637;39;20778;-83
2021/08/18 00:36:28;;;;;;;3.08;0.70;;;;;;;;;;1082161;54;20386;-83
2021/08/18 00:37:30;;;;;;;3.25;1.02;;;;;;;;;;1082412;47;20464;-83
2021/08/18 00:38:32;;;;;;;4.75;0.75;;;;;;;;;;1082259;47;20975;-83
2021/08/18 00:39:33;;;;;;;4.53;0.63;;;;;;;;;;1082014;47;20393;-83
2021/08/18 00:40:35;;;;;;;3.22;0.82;;;;;;;;;;1078821;47;20389;-84
2021/08/18 00:41:37;;;;;;;4.35;0.80;;;;;;;;;;1081360;39;20846;-84
2021/08/18 00:42:40;;;;;;;4.15;1.00;;;;;;;;;;1081196;39;20834;-83
2021/08/18 00:43:42;;;;;;;3.00;0.70;;;;;;;;;;1081291;54;20370;-83
2021/08/18 00:44:44;;;;;;;4.60;0.90;;;;;;;;;;1081663;54;20345;-83
2021/08/18 00:45:46;;;;;;;2.38;0.70;;;;;;;;;;1081883;54;20362;-83
2021/08/18 00:46:57;;;;;;;5.47;0.50;;;;;;;;;;1081549;54;20392;-84
2021/08/18 00:47:58;;;;;;;2.30;1.02;;;;;;;;;;1081982;54;20476;-84
2021/08/18 00:49:04;;;;;;;3.50;0.73;;;;;;;;;;1081726;47;20377;-83
2021/08/18 00:50:06;;;;;;;2.37;0.60;;;;;;;;;;1081507;47;20544;-84
2021/08/18 00:51:07;;;;;;;2.88;1.00;;;;;;;;;;1082292;54;20365;-84
2021/08/18 00:52:09;;;;;;;5.47;0.70;;;;;;;;;;1081327;54;20456;-84
2021/08/18 00:53:24;;;;;;;3.35;0.60;;;;;;;;;;1081128;47;20472;-83
2021/08/18 00:54:26;;;;;;;4.90;0.70;;;;;;;;;;1081641;47;21015;-84
2021/08/18 00:55:28;;;;;;;3.03;1.20;;;;;;;;;;1081690;47;20380;-84
2021/08/18 00:56:30;;;;;;;1.70;0.60;;;;;;;;;;1082103;39;20759;-84
2021/08/18 00:57:32;;;;;;;7.70;1.15;;;;;;;;;;1081465;54;20370;-83
2021/08/18 00:58:34;;;;;;;3.70;0.60;;;;;;;;;;1081385;47;20389;-84
2021/08/18 00:59:36;;;;;;;3.15;0.70;;;;;;;;;;1082321;39;21114;-84
2021/08/18 01:00:38;;;;;;;3.40;0.90;;;;;;;;;;1081726;47;20381;-84
2021/08/18 01:01:42;;;;;;;4.18;1.00;;;;;;;;;;1081989;39;20499;-84
2021/08/18 01:02:46;;;;;;;2.25;0.70;;;;;;;;;;1081531;47;20368;-84
2021/08/18 01:03:48;;;;;;;3.45;0.82;;;;;;;;;;1081583;54;20381;-85
2021/08/18 01:04:50;;;;;;;2.85;0.60;;;;;;;;;;1081765;47;20377;-83
2021/08/18 01:05:52;;;;;;;3.10;0.70;;;;;;;;;;1081736;54;20417;-85
2021/08/18 01:06:53;;;;;;;3.42;0.63;;;;;;;;;;1082968;47;20401;-84
2021/08/18 01:07:57;;;;;;;3.80;0.90;;;;;;;;;;1083098;47;20373;-84
2021/08/18 01:08:59;;;;;;;3.40;0.80;;;;;;;;;;1081734;54;20452;-83
2021/08/18 01:10:10;;;;;;;4.35;0.77;;;;;;;;;;1082245;54;20441;-83
2021/08/18 01:11:13;;;;;;;4.68;0.65;;;;;;;;;;1081619;46;20370;-82
2021/08/18 01:12:14;;;;;;;5.60;1.07;;;;;;;;;;1081408;54;20457;-83
2021/08/18 01:13:17;;;;;;;2.47;0.60;;;;;;;;;;1081684;54;20385;-82
2021/08/18 01:14:19;;;;;;;1.48;0.70;;;;;;;;;;1081771;39;20606;-83
2021/08/18 01:15:24;;;;;;;4.72;0.70;;;;;;;;;;1081401;54;20369;-83
2021/08/18 01:16:26;;;;;;;2.55;0.80;;;;;;;;;;1081657;46;20409;-83
2021/08/18 01:17:37;;;;;;;1.83;0.60;;;;;;;;;;1081611;47;20404;-82
2021/08/18 01:18:39;;;;;;;2.47;0.77;;;;;;;;;;1081616;47;20373;-83
2021/08/18 01:19:41;;;;;;;3.47;0.93;;;;;;;;;;1081454;47;20488;-83
2021/08/18 01:20:43;;;;;;;6.95;0.85;;;;;;;;;;1082215;47;20401;-83
2021/08/18 01:21:47;;;;;;;3.90;0.75;;;;;;;;;;1081505;54;20949;-83
2021/08/18 01:22:49;;;;;;;5.25;1.00;;;;;;;;;;1081463;54;20943;-84
2021/08/18 01:23:52;;;;;;;5.10;1.00;;;;;;;;;;1081619;54;20377;-83
2021/08/18 01:24:54;;;;;;;1.98;0.55;;;;;;;;;;1081337;47;20381;-82
2021/08/18 01:25:56;;;;;;;2.28;0.60;;;;;;;;;;1081416;54;21309;-83
2021/08/18 01:26:58;;;;;;;1.35;0.60;;;;;;;;;;1081741;39;20820;-82
2021/08/18 01:28:02;;;;;;;3.05;0.73;;;;;;;;;;1082025;47;20392;-83
2021/08/18 01:29:04;;;;;;;4.55;0.57;;;;;;;;;;1081712;47;20393;-84
2021/08/18 01:30:06;;;;;;;2.80;0.80;;;;;;;;;;1081448;54;20377;-83
2021/08/18 01:31:08;;;;;;;3.97;1.30;;;;;;;;;;1081812;54;20381;-83
2021/08/18 01:32:10;;;;;;;3.05;0.68;;;;;;;;;;1081679;54;20373;-83
2021/08/18 01:33:17;;;;;;;3.80;0.50;;;;;;;;;;1081644;54;20380;-84
2021/08/18 01:34:18;;;;;;;4.18;1.10;;;;;;;;;;1081572;54;20410;-84
2021/08/18 01:35:41;;;;;;;2.97;0.50;;;;;;;;;;1081526;54;21476;-83
2021/08/18 01:36:43;;;;;;;2.40;0.52;;;;;;;;;;1081262;54;20397;-83
2021/08/18 01:37:45;;;;;;;4.85;0.90;;;;;;;;;;1081598;54;20407;-84
2021/08/18 01:38:47;;;;;;;2.97;0.60;;;;;;;;;;1081536;54;20361;-85
2021/08/18 01:39:49;;;;;;;2.60;0.75;;;;;;;;;;1081878;47;20366;-84
2021/08/18 01:40:52;;;;;;;2.95;0.80;;;;;;;;;;1082125;47;21001;-84
2021/08/18 01:41:53;;;;;;;2.70;0.50;;;;;;;;;;1081828;47;20400;-84
2021/08/18 01:42:55;;;;;;;2.13;0.60;;;;;;;;;;1081906;54;20388;-85
2021/08/18 01:43:57;;;;;;;2.38;0.80;;;;;;;;;;1082102;54;20369;-83
2021/08/18 01:44:59;;;;;;;4.28;0.80;;;;;;;;;;1082489;54;20369;-84
2021/08/18 01:46:01;;;;;;;2.05;0.60;;;;;;;;;;1082158;54;20369;-83
2021/08/18 01:47:03;;;;;;;3.03;0.57;;;;;;;;;;1082329;47;20960;-84
2021/08/18 01:48:19;;;;;;;2.60;0.95;;;;;;;;;;1082203;47;20420;-83
2021/08/18 01:49:20;;;;;;;2.47;0.60;;;;;;;;;;1081988;47;20385;-84
2021/08/18 01:50:23;;;;;;;3.97;0.60;;;;;;;;;;1082026;54;20377;-84
2021/08/18 01:51:25;;;;;;;3.83;0.90;;;;;;;;;;1081638;47;20396;-84
2021/08/18 01:52:27;;;;;;;3.03;0.73;;;;;;;;;;1082094;39;20781;-83
2021/08/18 01:53:31;;;;;;;3.45;1.33;;;;;;;;;;1081986;54;20428;-84
2021/08/18 01:54:32;;;;;;;2.20;0.60;;;;;;;;;;1081940;54;20423;-84
2021/08/18 01:55:35;;;;;;;3.45;1.10;;;;;;;;;;1081861;54;20369;-84
2021/08/18 01:56:36;;;;;;;2.85;0.50;;;;;;;;;;1083568;47;20373;-84
2021/08/18 01:57:39;;;;;;;6.75;0.80;;;;;;;;;;1085202;47;20922;-84
2021/08/18 01:58:41;;;;;;;3.70;1.00;;;;;;;;;;1082438;54;20412;-84
2021/08/18 01:59:43;;;;;;;4.75;1.20;;;;;;;;;;1082541;48;20397;-84
2021/08/18 02:00:45;;;;;;;5.45;0.80;;;;;;;;;;1082909;54;20373;-84
2021/08/18 02:01:46;;;;;;;3.08;0.80;;;;;;;;;;1083177;47;20376;-84
2021/08/18 02:02:49;;;;;;;2.40;0.60;;;;;;;;;;1087169;47;20381;-84
2021/08/18 02:03:51;;;;;;;2.38;0.65;;;;;;;;;;1087037;54;20393;-83
2021/08/18 02:04:53;;;;;;;3.92;0.73;;;;;;;;;;1087105;54;20450;-85
2021/08/18 02:05:55;;;;;;;5.07;0.90;;;;;;;;;;1086024;54;20373;-84
2021/08/18 02:06:56;;;;;;;5.32;0.98;;;;;;;;;;1086210;54;20416;-84
2021/08/18 02:07:58;;;;;;;3.20;0.50;;;;;;;;;;1087178;54;20386;-83
2021/08/18 02:09:00;;;;;;;3.15;0.52;;;;;;;;;;1087952;54;20366;-83
2021/08/18 02:10:04;;;;;;;3.55;0.90;;;;;;;;;;1087518;54;20377;-84
2021/08/18 02:11:06;;;;;;;4.35;0.70;;;;;;;;;;1087423;47;20354;-82
2021/08/18 02:12:08;;;;;;;2.13;0.95;;;;;;;;;;1086732;47;20481;-84
2021/08/18 02:13:10;;;;;;;4.93;1.00;;;;;;;;;;1086251;47;20358;-84
2021/08/18 02:14:12;;;;;;;3.70;0.70;;;;;;;;;;1086053;54;20369;-85
2021/08/18 02:15:18;;;;;;;2.60;0.70;;;;;;;;;;1085729;47;20457;-84
2021/08/18 02:16:20;;;;;;;2.75;0.82;;;;;;;;;;1085758;54;20484;-84
2021/08/18 02:17:22;;;;;;;5.28;1.05;;;;;;;;;;1084133;54;20909;-84
2021/08/18 02:18:24;;;;;;;1.73;0.70;;;;;;;;;;1083093;47;20397;-85
2021/08/18 02:19:25;;;;;;;5.32;1.10;;;;;;;;;;1083165;39;20758;-85
2021/08/18 02:20:30;;;;;;;3.70;1.00;;;;;;;;;;1082628;47;20366;-85
2021/08/18 02:21:32;;;;;;;4.45;1.00;;;;;;;;;;1082114;54;20365;-84
2021/08/18 02:22:34;;;;;;;4.35;0.70;;;;;;;;;;1081288;47;20980;-84
2021/08/18 02:23:35;;;;;;;1.77;0.70;;;;;;;;;;1081888;47;20380;-84
2021/08/18 02:24:37;;;;;;;3.92;0.90;;;;;;;;;;1081853;54;20396;-85
2021/08/18 02:25:39;;;;;;;4.20;0.95;;;;;;;;;;1081920;54;20363;-84
2021/08/18 02:26:40;;;;;;;5.00;1.30;;;;;;;;;;1081379;47;21020;-85
2021/08/18 02:27:42;;;;;;;4.75;0.82;;;;;;;;;;1081680;54;20954;-84
2021/08/18 02:28:44;;;;;;;1.33;0.65;;;;;;;;;;1082025;54;20370;-85
2021/08/18 02:29:46;;;;;;;2.80;0.98;;;;;;;;;;1082158;54;20381;-84
2021/08/18 02:30:47;;;;;;;2.85;0.77;;;;;;;;;;1081943;54;20378;-85
2021/08/18 02:31:49;;;;;;;10.90;1.30;;;;;;;;;;1081687;54;20361;-85
2021/08/18 02:32:52;;;;;;;3.65;0.70;;;;;;;;;;1081375;47;20504;-85
2021/08/18 02:33:54;;;;;;;3.22;0.77;;;;;;;;;;1081947;47;20468;-84
2021/08/18 02:34:56;;;;;;;4.38;1.00;;;;;;;;;;1081491;54;20505;-84
2021/08/18 02:35:58;;;;;;;3.88;1.02;;;;;;;;;;1081832;47;20954;-84
2021/08/18 02:36:59;;;;;;;4.78;1.48;;;;;;;;;;1081212;54;20385;-83
2021/08/18 02:38:02;;;;;;;2.28;0.80;;;;;;;;;;1081597;54;20408;-84
2021/08/18 02:39:05;;;;;;;3.55;0.75;;;;;;;;;;1081665;54;20396;-84
2021/08/18 02:40:09;;;;;;;4.10;0.85;;;;;;;;;;1081691;47;20377;-84
2021/08/18 02:41:10;;;;;;;6.60;1.35;;;;;;;;;;1081317;54;20361;-84
2021/08/18 02:42:12;;;;;;;5.70;1.25;;;;;;;;;;1081439;47;20388;-85
2021/08/18 02:43:14;;;;;;;2.25;1.00;;;;;;;;;;1081688;54;20428;-83
2021/08/18 02:44:16;;;;;;;3.67;1.00;;;;;;;;;;1082299;54;20404;-84
2021/08/18 02:45:19;;;;;;;4.40;1.08;;;;;;;;;;1082298;47;20385;-85
2021/08/18 02:46:21;;;;;;;3.10;1.15;;;;;;;;;;1082113;54;20393;-85
2021/08/18 02:47:22;;;;;;;5.05;0.90;;;;;;;;;;1083087;54;20372;-84
2021/08/18 02:48:24;;;;;;;4.50;1.25;;;;;;;;;;1086202;54;20369;-84
2021/08/18 02:49:26;;;;;;;3.65;0.90;;;;;;;;;;1086566;47;20416;-83
2021/08/18 02:50:30;;;;;;;3.13;1.38;;;;;;;;;;1086762;54;20388;-84
2021/08/18 02:51:31;;;;;;;4.88;1.15;;;;;;;;;;1086699;54;20405;-83
2021/08/18 02:52:33;;;;;;;4.05;1.10;;;;;;;;;;1086801;47;20369;-82
2021/08/18 02:53:35;;;;;;;3.58;0.82;;;;;;;;;;1085447;54;20381;-85
2021/08/18 02:54:37;;;;;;;4.75;0.90;;;;;;;;;;1084628;54;20361;-84
2021/08/18 02:55:39;;;;;;;2.85;1.10;;;;;;;;;;1083857;54;20373;-84
2021/08/18 02:56:40;;;;;;;2.10;0.88;;;;;;;;;;1083245;54;20474;-85
2021/08/18 02:57:42;;;;;;;6.60;1.20;;;;;;;;;;1082501;39;21057;-85
2021/08/18 02:58:43;;;;;;;2.00;0.70;;;;;;;;;;1082128;47;20383;-85
2021/08/18 02:59:45;;;;;;;6.18;0.82;;;;;;;;;;1081775;54;20402;-85
2021/08/18 03:00:47;;;;;;;4.88;0.80;;;;;;;;;;1082047;54;20381;-84
2021/08/18 03:01:49;;;;;;;3.10;1.10;;;;;;;;;;1082745;54;20380;-84
2021/08/18 03:02:51;;;;;;;3.72;0.80;;;;;;;;;;1083789;47;20350;-85
2021/08/18 03:03:53;;;;;;;4.07;1.20;;;;;;;;;;1083803;54;20381;-86
2021/08/18 03:04:56;;;;;;;5.55;0.82;;;;;;;;;;1084785;54;20353;-85
2021/08/18 03:05:57;;;;;;;3.85;0.88;;;;;;;;;;1084682;54;20373;-83
2021/08/18 03:06:59;;;;;;;2.80;0.68;;;;;;;;;;1084282;54;20381;-83
2021/08/18 03:08:01;;;;;;;3.63;1.10;;;;;;;;;;1083307;54;20369;-84
2021/08/18 03:09:03;;;;;;;1.92;0.75;;;;;;;;;;1083208;54;21034;-83
2021/08/18 03:10:05;;;;;;;4.65;0.88;;;;;;;;;;1082619;47;20365;-84
2021/08/18 03:11:07;;;;;;;1.10;0.70;;;;;;;;;;1083884;47;20484;-85
2021/08/18 03:12:10;;;;;;;4.10;0.98;;;;;;;;;;1085897;39;20842;-86
2021/08/18 03:13:11;;;;;;;3.25;0.82;;;;;;;;;;1085375;54;20366;-86
2021/08/18 03:14:13;;;;;;;4.32;1.05;;;;;;;;;;1083426;47;20381;-84
2021/08/18 03:15:15;;;;;;;2.58;0.70;;;;;;;;;;1083043;54;20369;-84
2021/08/18 03:16:17;;;;;;;6.43;0.90;;;;;;;;;;1082948;47;20951;-84
2021/08/18 03:17:18;;;;;;;2.58;1.20;;;;;;;;;;1083249;39;20671;-85
2021/08/18 03:18:20;;;;;;;1.83;0.95;;;;;;;;;;1082253;47;20377;-85
2021/08/18 03:19:22;;;;;;;4.82;1.40;;;;;;;;;;1081818;47;20385;-85
2021/08/18 03:20:23;;;;;;;2.85;1.20;;;;;;;;;;1081397;47;20373;-85
2021/08/18 03:21:25;;;;;;;3.72;1.17;;;;;;;;;;1081314;54;20369;-84
2021/08/18 03:22:27;;;;;;;2.78;1.05;;;;;;;;;;1081941;39;20813;-85
2021/08/18 03:23:29;;;;;;;3.08;0.88;;;;;;;;;;1081685;54;20408;-83
2021/08/18 03:24:30;;;;;;;3.70;0.98;;;;;;;;;;1081700;47;20955;-84
2021/08/18 03:25:32;;;;;;;4.75;1.10;;;;;;;;;;1081050;54;20375;-84
2021/08/18 03:26:34;;;;;;;6.63;1.27;;;;;;;;;;1081382;54;20384;-83
2021/08/18 03:27:36;;;;;;;3.15;1.00;;;;;;;;;;1081604;47;20396;-84
2021/08/18 03:28:38;;;;;;;3.42;0.70;;;;;;;;;;1081397;54;20427;-83
2021/08/18 03:29:39;;;;;;;4.40;0.73;;;;;;;;;;1082166;39;20800;-83
2021/08/18 03:30:41;;;;;;;2.63;0.93;;;;;;;;;;1081026;47;20393;-84
2021/08/18 03:31:43;;;;;;;4.35;1.20;;;;;;;;;;1081278;54;20437;-84
2021/08/18 03:32:45;;;;;;;3.80;1.35;;;;;;;;;;1081730;54;20362;-84
2021/08/18 03:33:46;;;;;;;4.57;1.30;;;;;;;;;;1081482;47;20397;-84
2021/08/18 03:34:48;;;;;;;3.20;1.20;;;;;;;;;;1081335;47;20447;-83
2021/08/18 03:35:50;;;;;;;2.97;1.05;;;;;;;;;;1081495;47;20370;-84
2021/08/18 03:36:51;;;;;;;3.28;1.05;;;;;;;;;;1081874;54;20435;-83
2021/08/18 03:37:53;;;;;;;5.43;1.30;;;;;;;;;;1081194;47;20404;-83
2021/08/18 03:38:55;;;;;;;2.42;1.20;;;;;;;;;;1081804;39;20786;-84
2021/08/18 03:39:57;;;;;;;3.97;1.10;;;;;;;;;;1081247;54;20365;-84
2021/08/18 03:40:59;;;;;;;5.57;1.40;;;;;;;;;;1081454;54;20933;-83
2021/08/18 03:42:01;;;;;;;3.20;1.15;;;;;;;;;;1081520;54;20385;-84
2021/08/18 03:43:02;;;;;;;4.15;1.10;;;;;;;;;;1081544;47;20376;-83
2021/08/18 03:44:04;;;;;;;3.75;0.98;;;;;;;;;;1081465;54;20349;-84
2021/08/18 03:45:06;;;;;;;2.77;1.33;;;;;;;;;;1081584;47;20377;-83
2021/08/18 03:46:09;;;;;;;6.80;1.20;;;;;;;;;;1081299;47;20357;-85
2021/08/18 03:47:10;;;;;;;3.40;1.20;;;;;;;;;;1081593;47;20393;-83
2021/08/18 03:48:12;;;;;;;2.42;1.10;;;;;;;;;;1081341;54;20383;-84
2021/08/18 03:49:14;;;;;;;2.70;1.00;;;;;;;;;;1081794;39;20731;-84
2021/08/18 03:50:16;;;;;;;4.65;1.27;;;;;;;;;;1081568;39;20822;-84
2021/08/18 03:51:17;;;;;;;4.15;1.40;;;;;;;;;;1084654;54;20404;-83
2021/08/18 03:52:19;;;;;;;3.92;1.58;;;;;;;;;;1081193;54;20955;-84
2021/08/18 03:53:20;;;;;;;3.38;1.48;;;;;;;;;;1081643;49;20389;-84
2021/08/18 03:54:22;;;;;;;3.05;1.50;;;;;;;;;;1081010;47;20383;-84
2021/08/18 03:55:24;;;;;;;4.93;1.40;;;;;;;;;;1081254;47;20439;-83
2021/08/18 03:56:25;;;;;;;2.38;1.20;;;;;;;;;;1081563;54;20397;-84
2021/08/18 03:57:27;;;;;;;3.30;1.30;;;;;;;;;;1081738;54;20490;-83
2021/08/18 03:58:29;;;;;;;4.60;1.30;;;;;;;;;;1081335;47;20405;-84
2021/08/18 03:59:30;;;;;;;4.78;1.50;;;;;;;;;;1081155;47;20385;-84
2021/08/18 04:00:32;;;;;;;4.38;1.50;;;;;;;;;;1081510;47;20361;-83
2021/08/18 04:01:34;;;;;;;2.40;1.03;;;;;;;;;;1081302;54;20396;-83
2021/08/18 04:02:36;;;;;;;7.60;1.20;;;;;;;;;;1081767;39;20794;-84
2021/08/18 04:03:38;;;;;;;3.67;1.20;;;;;;;;;;1081307;47;20975;-83
2021/08/18 04:04:40;;;;;;;2.22;1.13;;;;;;;;;;1081224;54;21234;-84
2021/08/18 04:05:42;;;;;;;3.05;1.20;;;;;;;;;;1081732;54;20361;-83
2021/08/18 04:06:43;;;;;;;2.30;1.13;;;;;;;;;;1081412;54;20373;-85
2021/08/18 04:07:45;;;;;;;2.88;1.30;;;;;;;;;;1081220;47;20408;-84
2021/08/18 04:08:46;;;;;;;3.20;1.40;;;;;;;;;;1081336;54;20373;-83
2021/08/18 04:09:48;;;;;;;4.80;1.75;;;;;;;;;;1081542;54;20377;-83
2021/08/18 04:10:50;;;;;;;4.18;1.65;;;;;;;;;;1082245;39;20762;-84
2021/08/18 04:11:51;;;;;;;3.38;1.27;;;;;;;;;;1081429;54;20404;-84
2021/08/18 04:12:58;;;;;;;3.22;1.52;;;;;;;;;;1081159;47;21346;-85
2021/08/18 04:14:00;;;;;;;2.10;1.25;;;;;;;;;;1081127;54;20365;-82
2021/08/18 04:15:01;;;;;;;5.13;1.80;;;;;;;;;;1081510;54;20403;-83
2021/08/18 04:16:03;;;;;;;3.70;1.45;;;;;;;;;;1082086;39;20808;-83
2021/08/18 04:17:05;;;;;;;3.97;1.63;;;;;;;;;;1081856;52;20408;-84
2021/08/18 04:18:09;;;;;;;3.88;1.58;;;;;;;;;;1082040;47;20381;-84
2021/08/18 04:19:10;;;;;;;6.15;2.00;;;;;;;;;;1081699;47;20384;-84
2021/08/18 04:20:12;;;;;;;4.13;1.40;;;;;;;;;;1081743;54;20940;-84
2021/08/18 04:21:14;;;;;;;4.90;1.50;;;;;;;;;;1081586;54;20369;-83
2021/08/18 04:22:18;;;;;;;3.90;1.60;;;;;;;;;;1082010;39;20472;-83
2021/08/18 04:23:22;;;;;;;4.80;1.65;;;;;;;;;;1081131;54;20412;-83
2021/08/18 04:24:23;;;;;;;4.97;1.50;;;;;;;;;;1081694;54;20412;-83
2021/08/18 04:25:25;;;;;;;3.95;1.98;;;;;;;;;;1081887;46;20405;-83
2021/08/18 04:26:27;;;;;;;4.00;1.67;;;;;;;;;;1081503;47;20380;-83
2021/08/18 04:27:28;;;;;;;4.68;1.70;;;;;;;;;;1081908;54;20410;-83
2021/08/18 04:28:30;;;;;;;10.98;2.50;;;;;;;;;;1081919;47;20377;-84
2021/08/18 04:29:32;;;;;;;3.88;1.63;;;;;;;;;;1081974;47;20489;-84
2021/08/18 04:30:34;;;;;;;4.07;1.77;;;;;;;;;;1082124;47;20365;-84
2021/08/18 04:31:35;;;;;;;4.47;1.93;;;;;;;;;;1082216;47;20428;-84
2021/08/18 04:32:38;;;;;;;4.95;1.70;;;;;;;;;;1082320;54;20390;-84
2021/08/18 04:33:39;;;;;;;4.57;1.85;;;;;;;;;;1082115;47;20943;-84
2021/08/18 04:34:41;;;;;;;3.42;1.90;;;;;;;;;;1082477;47;20369;-84
2021/08/18 04:35:43;;;;;;;5.13;2.10;;;;;;;;;;1082174;54;20446;-84
2021/08/18 04:36:45;;;;;;;4.18;1.65;;;;;;;;;;1082251;47;20358;-83
2021/08/18 04:37:47;;;;;;;4.43;2.35;;;;;;;;;;1081904;54;20394;-83
2021/08/18 04:38:48;;;;;;;5.00;2.05;;;;;;;;;;1081939;54;20361;-84
2021/08/18 04:39:50;;;;;;;5.47;2.00;;;;;;;;;;1083022;47;20472;-84
2021/08/18 04:40:52;;;;;;;4.95;2.20;;;;;;;;;;1082854;47;20381;-83
2021/08/18 04:41:53;;;;;;;4.57;1.90;;;;;;;;;;1084158;46;20409;-83
2021/08/18 04:42:55;;;;;;;6.80;1.97;;;;;;;;;;1086860;54;20396;-83
2021/08/18 04:43:57;;;;;;;6.35;2.17;;;;;;;;;;1087195;47;20382;-83
2021/08/18 04:44:59;;;;;;;4.32;1.85;;;;;;;;;;1087224;47;20377;-83
2021/08/18 04:46:00;;;;;;;3.65;2.60;;;;;;;;;;1087065;47;20357;-83
2021/08/18 04:47:02;;;;;;;8.02;1.85;;;;;;;;;;1086488;47;20400;-83
2021/08/18 04:48:04;;;;;;;3.90;2.15;;;;;;;;;;1087294;46;20365;-83
2021/08/18 04:49:06;;;;;;;3.50;2.10;;;;;;;;;;1087676;54;20425;-84
2021/08/18 04:50:10;;;;;;;4.57;1.98;;;;;;;;;;1087619;47;20387;-83
2021/08/18 04:51:11;;;;;;;4.00;1.80;;;;;;;;;;1087604;54;20416;-83
2021/08/18 04:52:14;;;;;;;5.05;2.00;;;;;;;;;;1087015;54;20365;-84
2021/08/18 04:53:16;;;;;;;4.38;1.70;;;;;;;;;;1086881;54;20441;-84
2021/08/18 04:54:18;;;;;;;4.47;1.83;;;;;;;;;;1086768;54;20386;-83
2021/08/18 04:55:20;;;;;;;5.65;1.80;;;;;;;;;;1084516;47;20373;-84
2021/08/18 04:56:21;;;;;;;5.95;2.15;;;;;;;;;;1082922;47;20400;-84
2021/08/18 04:57:23;;;;;;;5.07;1.98;;;;;;;;;;1081965;54;20395;-84
2021/08/18 04:58:25;;;;;;;6.30;1.80;;;;;;;;;;1082160;46;20361;-84
2021/08/18 04:59:26;;;;;;;4.25;1.50;;;;;;;;;;1082117;54;20388;-84
2021/08/18 05:00:28;;;;;;;2.85;1.80;;;;;;;;;;1082100;47;20412;-84
2021/08/18 05:01:30;;;;;;;2.83;1.75;;;;;;;;;;1082181;54;20381;-82
2021/08/18 05:02:33;;;;;;;3.55;1.40;;;;;;;;;;1081449;47;20388;-84
2021/08/18 05:03:34;;;;;;;4.97;1.90;;;;;;;;;;1081894;54;20389;-84
2021/08/18 05:04:36;;;;;;;4.18;1.90;;;;;;;;;;1082397;39;20660;-83
2021/08/18 05:05:41;;;;;;;4.00;1.50;;;;;;;;;;1085440;54;20373;-85
2021/08/18 05:06:43;;;;;;;2.53;1.40;;;;;;;;;;1084639;54;20461;-84
2021/08/18 05:07:44;;;;;;;6.82;2.05;;;;;;;;;;1082010;47;20421;-84
2021/08/18 05:08:46;;;;;;;3.58;1.65;;;;;;;;;;1081897;47;20911;-84
2021/08/18 05:09:48;;;;;;;6.90;1.98;;;;;;;;;;1082350;54;20366;-84
2021/08/18 05:10:49;;;;;;;3.50;1.60;;;;;;;;;;1084223;54;20412;-83
2021/08/18 05:11:51;;;;;;;2.65;1.35;;;;;;;;;;1083988;47;20437;-84
2021/08/18 05:12:53;;;;;;;2.40;1.42;;;;;;;;;;1081420;54;20389;-85
2021/08/18 05:13:55;;;;;;;5.35;1.75;;;;;;;;;;1081861;54;20932;-84
2021/08/18 05:14:57;;;;;;;5.18;2.10;;;;;;;;;;1081880;54;20377;-84
2021/08/18 05:15:59;;;;;;;3.78;1.73;;;;;;;;;;1082306;54;20412;-84
2021/08/18 05:17:00;;;;;;;3.00;1.95;;;;;;;;;;1081755;54;20377;-83
2021/08/18 05:18:02;;;;;;;5.00;1.80;;;;;;;;;;1082244;54;20955;-83
2021/08/18 05:19:04;;;;;;;4.80;2.05;;;;;;;;;;1083059;39;20742;-84
2021/08/18 05:20:06;;;;;;;4.90;1.92;;;;;;;;;;1082385;47;20370;-83
2021/08/18 05:21:08;;;;;;;4.03;1.80;;;;;;;;;;1084838;54;20400;-83
2021/08/18 05:22:10;;;;;;;6.18;1.98;;;;;;;;;;1086322;54;20377;-82
2021/08/18 05:23:12;;;;;;;6.65;2.80;;;;;;;;;;1086059;47;20397;-83
2021/08/18 05:24:13;;;;;;;3.80;2.75;;;;;;;;;;1086725;47;20385;-82
2021/08/18 05:25:16;;;;;;;5.22;2.60;;;;;;;;;;1086993;54;20403;-82
2021/08/18 05:26:18;;;;;;;4.37;2.87;;;;;;;;;;1086562;47;20417;-84
2021/08/18 05:27:20;;;;;;;4.25;2.30;;;;;;;;;;1083933;47;20385;-83
2021/08/18 05:28:21;;;;;;;2.38;2.17;;;;;;;;;;1084179;54;20349;-84
2021/08/18 05:29:23;;;;;;;4.38;2.33;;;;;;;;;;1083961;47;20373;-84
2021/08/18 05:30:25;;;;;;;8.82;2.22;;;;;;;;;;1083278;54;20392;-84
2021/08/18 05:31:26;;;;;;;5.00;2.40;;;;;;;;;;1081785;54;20365;-83
2021/08/18 05:32:28;;;;;;;4.20;2.50;;;;;;;;;;1082154;54;20400;-84
2021/08/18 05:33:30;;;;;;;4.35;1.88;;;;;;;;;;1082547;47;20399;-83
2021/08/18 05:34:32;;;;;;;4.70;2.58;;;;;;;;;;1082221;47;20376;-85
2021/08/18 05:35:33;;;;;;;6.80;2.75;;;;;;;;;;1081671;54;20401;-84
2021/08/18 05:36:35;;;;;;;3.90;2.65;;;;;;;;;;1081409;54;20373;-84
2021/08/18 05:37:37;;;;;;;5.72;2.58;;;;;;;;;;1081850;54;20385;-84
2021/08/18 05:38:38;;;;;;;3.80;1.98;;;;;;;;;;1082074;54;20392;-83
2021/08/18 05:39:40;;;;;;;5.20;2.42;;;;;;;;;;1081659;54;21003;-85
2021/08/18 05:40:42;;;;;;;5.28;2.38;;;;;;;;;;1081681;54;20369;-83
2021/08/18 05:41:43;;;;;;;4.05;2.60;;;;;;;;;;1081579;54;20374;-84
2021/08/18 05:42:45;;;;;;;6.63;2.00;;;;;;;;;;1081773;54;20381;-84
2021/08/18 05:43:47;;;;;;;3.47;2.53;;;;;;;;;;1081807;54;20396;-84
2021/08/18 05:44:49;;;;;;;2.88;2.25;;;;;;;;;;1081865;51;20409;-84
2021/08/18 05:45:50;;;;;;;4.57;2.33;;;;;;;;;;1081764;47;20385;-84
2021/08/18 05:46:53;;;;;;;3.33;2.30;;;;;;;;;;1081511;47;20388;-84
2021/08/18 05:47:55;;;;;;;4.43;2.75;;;;;;;;;;1081925;47;20411;-84
2021/08/18 05:48:56;;;;;;;4.55;2.30;;;;;;;;;;1081803;47;20354;-85
2021/08/18 05:49:58;;;;;;;6.35;2.88;;;;;;;;;;1082683;54;20392;-84
2021/08/18 05:51:00;;;;;;;3.80;2.75;;;;;;;;;;1083633;54;20376;-83
2021/08/18 05:52:02;;;;;;;3.30;1.85;;;;;;;;;;1084717;54;20393;-83
2021/08/18 05:53:05;;;;;;;5.00;2.38;;;;;;;;;;1083433;54;20361;-83
2021/08/18 05:54:06;;;;;;;3.72;2.63;;;;;;;;;;1082979;54;20369;-84
2021/08/18 05:55:09;;;;;;;5.68;2.25;;;;;;;;;;1082930;47;20361;-83
2021/08/18 05:56:10;;;;;;;3.50;2.08;;;;;;;;;;1083325;47;20358;-85
2021/08/18 05:57:12;;;;;;;2.55;2.10;;;;;;;;;;1084753;47;20393;-85
2021/08/18 05:58:14;;;;;;;5.47;2.00;;;;;;;;;;1085178;54;20365;-84
2021/08/18 05:59:16;;;;;;;4.07;2.65;;;;;;;;;;1085088;54;20380;-84
2021/08/18 06:00:17;;;;;;;3.97;2.28;;;;;;;;;;1083382;54;20373;-83
2021/08/18 06:01:19;;;;;;;4.85;2.40;;;;;;;;;;1082848;54;20385;-84
2021/08/18 06:02:21;;;;;;;3.83;2.17;;;;;;;;;;1082838;47;20373;-84
2021/08/18 06:03:23;;;;;;;4.20;2.05;;;;;;;;;;1082412;47;20488;-84
2021/08/18 06:04:25;;;;;;;2.38;2.17;;;;;;;;;;1082324;54;20388;-84
2021/08/18 06:05:27;;;;;;;5.93;3.50;;;;;;;;;;1081705;54;20380;-85
2021/08/18 06:06:28;;;;;;;5.20;2.90;;;;;;;;;;1081677;54;20389;-84
2021/08/18 06:07:30;;;;;;;3.63;2.63;;;;;;;;;;1081660;54;20477;-84
2021/08/18 06:08:32;;;;;;;5.18;2.50;;;;;;;;;;1081594;47;20400;-84
2021/08/18 06:09:33;;;;;;;4.22;3.03;;;;;;;;;;1082039;47;20913;-84
2021/08/18 06:10:35;;;;;;;4.05;3.00;;;;;;;;;;1082090;54;20463;-84
2021/08/18 06:11:40;;;;;;;6.07;3.20;;;;;;;;;;1081936;47;20436;-84
2021/08/18 06:12:42;;;;;;;7.80;3.47;;;;;;;;;;1082019;47;20369;-84